createdAt,value
2017-08-25T00:00:50.660Z,15.27
2017-08-25T00:01:50.662Z,15.24
2017-08-25T00:02:50.661Z,15.22
2017-08-25T00:03:50.667Z,15.21
2017-08-25T00:04:50.666Z,15.21
2017-08-25T00:05:50.673Z,15.21
2017-08-25T00:06:50.690Z,15.23
2017-08-25T00:07:50.676Z,15.22
2017-08-25T00:08:50.681Z,15.25
2017-08-25T00:09:54.364Z,15.24
2017-08-25T00:10:50.700Z,15.23
2017-08-25T00:11:50.689Z,15.19
2017-08-25T00:12:50.692Z,15.16
2017-08-25T00:13:50.693Z,15.13
2017-08-25T00:14:50.699Z,15.11
2017-08-25T00:15:50.989Z,15.10
2017-08-25T00:16:50.705Z,15.09
2017-08-25T00:17:50.712Z,15.09
2017-08-25T00:18:50.710Z,15.11
2017-08-25T00:19:50.712Z,15.11
2017-08-25T00:20:50.714Z,15.15
2017-08-25T00:21:50.960Z,15.17
2017-08-25T00:22:50.723Z,15.20
2017-08-25T00:23:50.729Z,15.23
2017-08-25T00:24:50.725Z,15.24
2017-08-25T00:25:50.729Z,15.28
2017-08-25T00:26:50.735Z,15.29
2017-08-25T00:27:50.750Z,15.32
2017-08-25T00:28:50.738Z,15.35
2017-08-25T00:29:50.744Z,15.33
2017-08-25T00:30:50.744Z,15.36
2017-08-25T00:31:50.750Z,15.37
2017-08-25T00:32:50.754Z,15.40
2017-08-25T00:33:50.752Z,15.39
2017-08-25T00:34:50.755Z,15.41
2017-08-25T00:35:50.760Z,15.40
2017-08-25T00:36:50.764Z,15.39
2017-08-25T00:37:50.764Z,15.36
2017-08-25T00:38:50.773Z,15.32
2017-08-25T00:39:50.769Z,15.30
2017-08-25T00:40:50.774Z,15.26
2017-08-25T00:41:50.781Z,15.22
2017-08-25T00:42:50.791Z,15.21
2017-08-25T00:43:50.781Z,15.22
2017-08-25T00:44:50.797Z,15.18
2017-08-25T00:45:50.793Z,15.14
2017-08-25T00:46:50.791Z,15.12
2017-08-25T00:47:50.795Z,15.09
2017-08-25T00:48:50.795Z,15.05
2017-08-25T00:49:50.799Z,15.05
2017-08-25T00:50:50.801Z,15.01
2017-08-25T00:51:50.816Z,14.98
2017-08-25T00:52:50.809Z,14.94
2017-08-25T00:53:50.809Z,14.92
2017-08-25T00:54:50.812Z,14.92
2017-08-25T00:55:50.817Z,14.87
2017-08-25T00:56:50.818Z,14.86
2017-08-25T00:57:50.829Z,14.84
2017-08-25T00:58:50.834Z,14.82
2017-08-25T00:59:50.826Z,14.80
2017-08-25T01:02:34.974Z,14.78
2017-08-25T01:02:36.498Z,14.76
2017-08-25T01:02:50.825Z,14.74
2017-08-25T01:03:50.832Z,14.72
2017-08-25T01:08:02.956Z,14.71
2017-08-25T01:08:04.607Z,14.68
2017-08-25T01:08:05.228Z,14.67
2017-08-25T01:08:05.836Z,14.66
2017-08-25T01:08:50.845Z,14.64
2017-08-25T01:09:50.845Z,14.62
2017-08-25T01:14:16.125Z,14.59
2017-08-25T01:14:17.255Z,14.57
2017-08-25T01:14:17.866Z,14.57
2017-08-25T01:14:18.471Z,14.57
2017-08-25T01:14:50.856Z,14.55
2017-08-25T01:15:50.863Z,14.55
2017-08-25T01:21:04.141Z,14.56
2017-08-25T01:21:05.678Z,14.56
2017-08-25T01:21:06.287Z,14.57
2017-08-25T01:21:06.898Z,14.57
2017-08-25T01:21:07.505Z,14.60
2017-08-25T01:21:50.880Z,14.65
2017-08-25T01:26:05.300Z,14.69
2017-08-25T01:26:06.899Z,14.71
2017-08-25T01:26:07.503Z,14.74
2017-08-25T01:26:08.115Z,14.75
2017-08-25T01:26:50.895Z,14.74
2017-08-25T01:27:50.936Z,14.74
2017-08-25T01:32:25.168Z,14.73
2017-08-25T01:32:26.242Z,14.72
2017-08-25T01:32:26.845Z,14.69
2017-08-25T01:32:27.457Z,14.66
2017-08-25T01:32:50.926Z,14.65
2017-08-25T01:33:50.945Z,14.60
2017-08-25T01:38:10.972Z,14.55
2017-08-25T01:38:12.518Z,14.51
2017-08-25T01:38:13.124Z,14.49
2017-08-25T01:38:13.737Z,14.46
2017-08-25T01:38:50.926Z,14.46
2017-08-25T01:39:50.929Z,14.46
2017-08-25T01:44:03.961Z,14.50
2017-08-25T01:44:05.754Z,14.51
2017-08-25T01:44:06.364Z,14.52
2017-08-25T01:44:06.974Z,14.54
2017-08-25T01:44:50.943Z,14.57
2017-08-25T01:45:50.946Z,14.58
2017-08-25T01:51:17.115Z,14.55
2017-08-25T01:51:18.364Z,14.56
2017-08-25T01:51:18.972Z,14.54
2017-08-25T01:51:19.579Z,14.54
2017-08-25T01:51:20.190Z,14.50
2017-08-25T01:51:50.963Z,14.50
2017-08-25T01:56:26.131Z,14.50
2017-08-25T01:56:27.627Z,14.50
2017-08-25T01:56:28.236Z,14.51
2017-08-25T01:56:28.843Z,14.54
2017-08-25T01:56:50.977Z,14.56
2017-08-25T01:57:50.988Z,14.57
2017-08-25T02:00:42.963Z,14.60
2017-08-25T02:00:44.050Z,14.63
2017-08-25T02:00:51.001Z,14.63
2017-08-25T02:01:51.007Z,14.63
2017-08-25T02:02:51.005Z,14.62
2017-08-25T02:03:51.012Z,14.61
2017-08-25T02:04:51.016Z,14.60
2017-08-25T02:05:51.018Z,14.59
2017-08-25T02:06:51.019Z,14.61
2017-08-25T02:07:51.021Z,14.65
2017-08-25T02:08:51.028Z,14.66
2017-08-25T02:09:51.026Z,14.67
2017-08-25T02:10:51.032Z,14.67
2017-08-25T02:11:51.039Z,14.66
2017-08-25T02:12:51.057Z,14.65
2017-08-25T02:13:51.040Z,14.68
2017-08-25T02:14:51.058Z,14.68
2017-08-25T02:15:51.045Z,14.69
2017-08-25T02:16:51.057Z,14.69
2017-08-25T02:17:51.051Z,14.69
2017-08-25T02:18:51.126Z,14.68
2017-08-25T02:19:51.106Z,14.68
2017-08-25T02:20:51.125Z,14.66
2017-08-25T02:21:51.177Z,14.62
2017-08-25T02:22:51.065Z,14.59
2017-08-25T02:23:51.069Z,14.55
2017-08-25T02:24:51.075Z,14.54
2017-08-25T02:25:51.074Z,14.52
2017-08-25T02:26:51.086Z,14.50
2017-08-25T02:27:51.085Z,14.50
2017-08-25T02:28:51.083Z,14.47
2017-08-25T02:29:51.087Z,14.44
2017-08-25T02:30:51.088Z,14.42
2017-08-25T02:31:51.098Z,14.40
2017-08-25T02:32:51.094Z,14.42
2017-08-25T02:33:51.095Z,14.40
2017-08-25T02:34:51.104Z,14.39
2017-08-25T02:35:51.102Z,14.40
2017-08-25T02:36:51.105Z,14.40
2017-08-25T02:37:51.106Z,14.39
2017-08-25T02:38:51.112Z,14.36
2017-08-25T02:39:51.114Z,14.37
2017-08-25T02:40:51.114Z,14.34
2017-08-25T02:41:51.117Z,14.34
2017-08-25T02:42:51.121Z,14.32
2017-08-25T02:43:51.203Z,14.29
2017-08-25T02:44:51.126Z,14.26
2017-08-25T02:45:51.203Z,14.23
2017-08-25T02:46:51.191Z,14.22
2017-08-25T02:47:51.214Z,14.21
2017-08-25T02:48:51.197Z,14.17
2017-08-25T02:49:51.239Z,14.14
2017-08-25T02:50:51.247Z,14.14
2017-08-25T02:51:51.225Z,14.13
2017-08-25T02:52:51.206Z,14.14
2017-08-25T02:53:51.231Z,14.13
2017-08-25T02:54:51.203Z,14.14
2017-08-25T02:55:51.206Z,14.15
2017-08-25T02:56:51.218Z,14.09
2017-08-25T02:57:51.246Z,14.06
2017-08-25T02:58:51.237Z,14.04
2017-08-25T02:59:51.220Z,14.04
2017-08-25T03:00:51.232Z,14.05
2017-08-25T03:01:51.236Z,14.08
2017-08-25T03:02:51.226Z,14.12
2017-08-25T03:03:51.238Z,14.17
2017-08-25T03:04:51.242Z,14.21
2017-08-25T03:05:51.232Z,14.24
2017-08-25T03:06:51.260Z,14.23
2017-08-25T03:07:51.467Z,14.23
2017-08-25T03:08:51.239Z,14.25
2017-08-25T03:09:51.463Z,14.27
2017-08-25T03:10:51.239Z,14.27
2017-08-25T03:11:51.262Z,14.26
2017-08-25T03:12:51.252Z,14.25
2017-08-25T03:13:51.256Z,14.24
2017-08-25T03:14:51.267Z,14.21
2017-08-25T03:15:51.283Z,14.20
2017-08-25T03:16:51.259Z,14.16
2017-08-25T03:17:51.262Z,14.19
2017-08-25T03:18:51.279Z,14.18
2017-08-25T03:19:51.284Z,14.21
2017-08-25T03:20:51.280Z,14.24
2017-08-25T03:21:51.286Z,14.22
2017-08-25T03:22:51.272Z,14.22
2017-08-25T03:23:51.270Z,14.22
2017-08-25T03:24:51.278Z,14.24
2017-08-25T03:25:51.284Z,14.26
2017-08-25T03:26:51.286Z,14.29
2017-08-25T03:27:51.291Z,14.34
2017-08-25T03:28:51.282Z,14.35
2017-08-25T03:29:51.290Z,14.38
2017-08-25T03:30:51.291Z,14.38
2017-08-25T03:31:51.298Z,14.40
2017-08-25T03:32:51.294Z,14.42
2017-08-25T03:33:51.306Z,14.45
2017-08-25T03:34:51.296Z,14.45
2017-08-25T03:35:51.320Z,14.47
2017-08-25T03:36:51.310Z,14.48
2017-08-25T03:37:51.315Z,14.51
2017-08-25T03:38:51.317Z,14.51
2017-08-25T03:39:51.327Z,14.49
2017-08-25T03:40:51.328Z,14.46
2017-08-25T03:41:51.435Z,14.47
2017-08-25T03:42:51.323Z,14.41
2017-08-25T03:44:16.533Z,14.41
2017-08-25T03:46:04.059Z,14.40
2017-08-25T03:46:05.543Z,14.32
2017-08-25T03:46:06.150Z,14.30
2017-08-25T03:46:51.337Z,14.27
2017-08-25T03:47:51.335Z,14.22
2017-08-25T03:48:51.337Z,14.18
2017-08-25T03:49:51.362Z,14.14
2017-08-25T03:50:51.357Z,14.08
2017-08-25T03:51:51.368Z,14.08
2017-08-25T03:52:51.338Z,14.09
2017-08-25T03:53:51.372Z,14.12
2017-08-25T03:54:51.352Z,14.10
2017-08-25T03:55:51.346Z,14.06
2017-08-25T03:56:51.352Z,14.02
2017-08-25T03:57:51.365Z,14.00
2017-08-25T03:58:51.364Z,13.98
2017-08-25T03:59:51.390Z,13.97
2017-08-25T04:00:51.375Z,14.02
2017-08-25T04:01:51.362Z,14.00
2017-08-25T04:02:51.362Z,14.02
2017-08-25T04:03:51.363Z,14.02
2017-08-25T04:04:51.360Z,14.04
2017-08-25T04:05:51.428Z,14.05
2017-08-25T04:06:51.368Z,13.98
2017-08-25T04:07:51.588Z,13.96
2017-08-25T04:08:51.430Z,13.93
2017-08-25T04:09:51.388Z,13.89
2017-08-25T04:10:51.393Z,13.85
2017-08-25T04:11:51.383Z,13.84
2017-08-25T04:12:51.394Z,13.83
2017-08-25T04:13:51.392Z,13.82
2017-08-25T04:14:51.420Z,13.83
2017-08-25T04:15:51.409Z,13.86
2017-08-25T04:16:51.397Z,13.86
2017-08-25T04:17:51.433Z,13.83
2017-08-25T04:18:51.668Z,13.82
2017-08-25T04:19:51.430Z,13.81
2017-08-25T04:20:51.409Z,13.80
2017-08-25T04:21:51.429Z,13.82
2017-08-25T04:22:51.467Z,13.85
2017-08-25T04:23:51.469Z,13.87
2017-08-25T04:24:51.441Z,13.90
2017-08-25T04:25:51.471Z,13.91
2017-08-25T04:26:51.454Z,13.88
2017-08-25T04:27:51.450Z,13.85
2017-08-25T04:28:51.543Z,13.82
2017-08-25T04:29:51.428Z,13.78
2017-08-25T04:30:51.485Z,13.75
2017-08-25T04:31:51.698Z,13.74
2017-08-25T04:32:51.440Z,13.74
2017-08-25T04:33:51.455Z,13.74
2017-08-25T04:34:51.452Z,13.75
2017-08-25T04:35:51.522Z,13.77
2017-08-25T04:36:51.511Z,13.82
2017-08-25T04:37:51.498Z,13.85
2017-08-25T04:38:51.520Z,13.90
2017-08-25T04:39:51.498Z,13.91
2017-08-25T04:40:51.482Z,13.94
2017-08-25T04:41:51.508Z,13.95
2017-08-25T04:42:51.517Z,13.96
2017-08-25T04:43:51.518Z,14.00
2017-08-25T04:44:51.511Z,14.03
2017-08-25T04:45:57.594Z,14.04
2017-08-25T04:46:51.518Z,14.06
2017-08-25T04:47:51.543Z,14.05
2017-08-25T04:48:51.495Z,14.04
2017-08-25T04:49:51.541Z,14.06
2017-08-25T04:50:51.535Z,14.09
2017-08-25T04:51:51.523Z,14.09
2017-08-25T04:52:51.538Z,14.10
2017-08-25T04:53:51.701Z,14.13
2017-08-25T04:54:51.545Z,14.14
2017-08-25T04:55:51.541Z,14.17
2017-08-25T04:56:51.576Z,14.20
2017-08-25T04:57:51.537Z,14.22
2017-08-25T04:58:51.551Z,14.25
2017-08-25T04:59:51.563Z,14.28
2017-08-25T05:00:51.563Z,14.31
2017-08-25T05:01:51.553Z,14.34
2017-08-25T05:02:51.568Z,14.36
2017-08-25T05:03:51.555Z,14.39
2017-08-25T05:04:51.579Z,14.41
2017-08-25T05:05:51.585Z,14.42
2017-08-25T05:06:51.572Z,14.44
2017-08-25T05:07:51.567Z,14.47
2017-08-25T05:08:51.581Z,14.47
2017-08-25T05:09:51.595Z,14.49
2017-08-25T05:10:51.597Z,14.51
2017-08-25T05:11:51.647Z,14.53
2017-08-25T05:12:51.597Z,14.55
2017-08-25T05:13:51.601Z,14.57
2017-08-25T05:14:51.619Z,14.59
2017-08-25T05:15:51.588Z,14.62
2017-08-25T05:16:51.587Z,14.61
2017-08-25T05:17:51.583Z,14.62
2017-08-25T05:18:51.600Z,14.62
2017-08-25T05:19:51.595Z,14.65
2017-08-25T05:20:51.591Z,14.68
2017-08-25T05:21:51.795Z,14.70
2017-08-25T05:22:51.617Z,14.72
2017-08-25T05:23:51.627Z,14.72
2017-08-25T05:24:51.676Z,14.71
2017-08-25T05:25:51.600Z,14.71
2017-08-25T05:26:51.607Z,14.69
2017-08-25T05:27:51.785Z,14.69
2017-08-25T05:28:51.631Z,14.68
2017-08-25T05:29:51.614Z,14.71
2017-08-25T05:30:51.615Z,14.71
2017-08-25T05:31:51.637Z,14.75
2017-08-25T05:32:51.611Z,14.78
2017-08-25T05:33:51.724Z,14.83
2017-08-25T05:34:51.692Z,14.88
2017-08-25T05:35:51.785Z,14.91
2017-08-25T05:36:51.660Z,14.94
2017-08-25T05:37:51.670Z,14.97
2017-08-25T05:38:51.679Z,15.01
2017-08-25T05:39:51.657Z,15.05
2017-08-25T05:40:51.675Z,15.09
2017-08-25T05:41:51.667Z,15.12
2017-08-25T05:42:51.639Z,15.15
2017-08-25T05:43:51.810Z,15.18
2017-08-25T05:44:51.693Z,15.20
2017-08-25T05:45:51.648Z,15.20
2017-08-25T05:46:51.691Z,15.21
2017-08-25T05:47:51.658Z,15.26
2017-08-25T05:48:51.681Z,15.29
2017-08-25T05:49:51.660Z,15.34
2017-08-25T05:50:51.664Z,15.41
2017-08-25T05:51:51.666Z,15.48
2017-08-25T05:52:51.721Z,15.53
2017-08-25T05:53:51.669Z,15.58
2017-08-25T05:54:51.671Z,15.67
2017-08-25T05:55:51.680Z,15.74
2017-08-25T05:56:51.713Z,15.83
2017-08-25T05:57:51.696Z,15.89
2017-08-25T05:58:51.711Z,15.94
2017-08-25T05:59:51.690Z,15.99
2017-08-25T06:00:51.693Z,16.05
2017-08-25T06:01:51.698Z,16.11
2017-08-25T06:02:51.705Z,16.13
2017-08-25T06:03:51.744Z,16.17
2017-08-25T06:04:51.752Z,16.18
2017-08-25T06:05:51.708Z,16.21
2017-08-25T06:06:51.709Z,16.25
2017-08-25T06:07:51.756Z,16.28
2017-08-25T06:08:51.737Z,16.31
2017-08-25T06:09:51.716Z,16.36
2017-08-25T06:10:51.758Z,16.40
2017-08-25T06:11:52.211Z,16.47
2017-08-25T06:12:51.729Z,16.47
2017-08-25T06:13:51.739Z,16.54
2017-08-25T06:14:52.003Z,16.58
2017-08-25T06:15:51.763Z,16.65
2017-08-25T06:16:51.882Z,16.71
2017-08-25T06:17:51.747Z,16.76
2017-08-25T06:18:51.780Z,16.81
2017-08-25T06:19:51.742Z,16.85
2017-08-25T06:20:51.751Z,16.84
2017-08-25T06:21:51.749Z,16.85
2017-08-25T06:22:51.757Z,16.89
2017-08-25T06:23:51.760Z,16.97
2017-08-25T06:24:51.759Z,17.03
2017-08-25T06:25:51.775Z,17.12
2017-08-25T06:26:51.766Z,17.17
2017-08-25T06:27:51.768Z,17.20
2017-08-25T06:28:51.778Z,17.23
2017-08-25T06:29:51.781Z,17.32
2017-08-25T06:30:51.838Z,17.39
2017-08-25T06:31:51.780Z,17.44
2017-08-25T06:32:51.783Z,17.43
2017-08-25T06:33:51.784Z,17.40
2017-08-25T06:34:51.899Z,17.42
2017-08-25T06:35:51.892Z,17.45
2017-08-25T06:36:51.794Z,17.53
2017-08-25T06:37:51.871Z,17.59
2017-08-25T06:38:51.832Z,17.66
2017-08-25T06:39:51.937Z,17.71
2017-08-25T06:40:51.871Z,17.67
2017-08-25T06:41:51.838Z,17.66
2017-08-25T06:42:52.013Z,17.63
2017-08-25T06:43:52.084Z,17.59
2017-08-25T06:44:51.950Z,17.63
2017-08-25T06:45:52.059Z,17.67
2017-08-25T06:46:52.190Z,17.71
2017-08-25T06:47:51.907Z,17.70
2017-08-25T06:48:51.952Z,17.76
2017-08-25T06:49:51.843Z,17.80
2017-08-25T06:50:51.864Z,17.86
2017-08-25T06:51:51.839Z,17.96
2017-08-25T06:52:51.840Z,18.01
2017-08-25T06:53:51.977Z,18.07
2017-08-25T06:54:51.880Z,18.14
2017-08-25T06:55:51.950Z,18.24
2017-08-25T06:56:52.034Z,18.27
2017-08-25T06:57:52.111Z,18.28
2017-08-25T06:58:51.888Z,18.26
2017-08-25T06:59:51.859Z,18.28
2017-08-25T07:00:51.863Z,18.34
2017-08-25T07:01:51.874Z,18.41
2017-08-25T07:02:51.899Z,18.50
2017-08-25T07:03:51.882Z,18.60
2017-08-25T07:04:51.873Z,18.68
2017-08-25T07:05:51.880Z,18.73
2017-08-25T07:06:51.935Z,18.76
2017-08-25T07:07:51.880Z,18.86
2017-08-25T07:08:51.885Z,18.96
2017-08-25T07:09:51.887Z,19.04
2017-08-25T07:10:51.908Z,19.07
2017-08-25T07:11:51.891Z,19.16
2017-08-25T07:12:52.112Z,19.18
2017-08-25T07:13:51.922Z,19.11
2017-08-25T07:14:51.903Z,19.08
2017-08-25T07:15:51.908Z,19.10
2017-08-25T07:16:51.915Z,19.09
2017-08-25T07:17:51.913Z,19.12
2017-08-25T07:18:51.909Z,19.21
2017-08-25T07:19:51.914Z,19.28
2017-08-25T07:20:51.919Z,19.33
2017-08-25T07:21:51.927Z,19.42
2017-08-25T07:22:51.933Z,19.46
2017-08-25T07:23:51.939Z,19.48
2017-08-25T07:24:51.932Z,19.49
2017-08-25T07:25:51.932Z,19.44
2017-08-25T07:26:51.938Z,19.45
2017-08-25T07:27:51.939Z,19.54
2017-08-25T07:28:51.938Z,19.67
2017-08-25T07:31:48.416Z,19.81
2017-08-25T07:31:49.899Z,19.91
2017-08-25T07:31:51.948Z,19.97
2017-08-25T07:32:51.976Z,20.00
2017-08-25T07:33:51.952Z,20.04
2017-08-25T07:34:51.955Z,20.11
2017-08-25T07:35:51.969Z,20.14
2017-08-25T07:36:51.983Z,20.21
2017-08-25T07:37:51.972Z,20.24
2017-08-25T07:38:51.969Z,20.30
2017-08-25T07:39:51.971Z,20.24
2017-08-25T07:40:51.984Z,20.24
2017-08-25T07:41:51.980Z,20.17
2017-08-25T07:42:51.986Z,20.18
2017-08-25T07:43:51.993Z,20.21
2017-08-25T07:44:51.990Z,20.17
2017-08-25T07:45:51.992Z,20.19
2017-08-25T07:46:51.991Z,20.20
2017-08-25T07:47:51.997Z,20.19
2017-08-25T07:48:52.002Z,20.23
2017-08-25T07:49:52.014Z,20.28
2017-08-25T07:50:52.016Z,20.33
2017-08-25T07:51:52.027Z,20.34
2017-08-25T07:52:52.014Z,20.38
2017-08-25T07:53:52.023Z,20.32
2017-08-25T07:54:52.017Z,20.28
2017-08-25T07:55:52.017Z,20.25
2017-08-25T07:56:52.033Z,20.28
2017-08-25T07:57:52.024Z,20.35
2017-08-25T07:58:52.089Z,20.39
2017-08-25T07:59:52.052Z,20.50
2017-08-25T08:00:52.111Z,20.51
2017-08-25T08:01:52.034Z,20.66
2017-08-25T08:02:52.044Z,20.75
2017-08-25T08:03:52.047Z,20.82
2017-08-25T08:04:52.045Z,20.79
2017-08-25T08:05:52.058Z,20.86
2017-08-25T08:06:52.144Z,21.00
2017-08-25T08:07:52.053Z,21.20
2017-08-25T08:08:52.065Z,21.38
2017-08-25T08:09:52.062Z,21.63
2017-08-25T08:10:52.061Z,21.84
2017-08-25T08:11:52.065Z,22.06
2017-08-25T08:12:52.071Z,22.09
2017-08-25T08:13:52.070Z,22.05
2017-08-25T08:14:52.076Z,21.88
2017-08-25T08:15:52.117Z,21.89
2017-08-25T08:16:52.088Z,21.94
2017-08-25T08:17:52.081Z,21.93
2017-08-25T08:18:52.085Z,22.04
2017-08-25T08:19:52.114Z,22.19
2017-08-25T08:20:52.091Z,22.36
2017-08-25T08:21:52.092Z,22.55
2017-08-25T08:22:52.095Z,22.63
2017-08-25T08:23:52.100Z,22.62
2017-08-25T08:24:52.104Z,22.49
2017-08-25T08:25:52.116Z,22.43
2017-08-25T08:26:52.106Z,22.42
2017-08-25T08:27:52.110Z,22.43
2017-08-25T08:28:52.116Z,22.45
2017-08-25T08:29:52.126Z,22.44
2017-08-25T08:30:52.122Z,22.48
2017-08-25T08:34:14.218Z,22.65
2017-08-25T08:34:15.698Z,22.78
2017-08-25T08:34:16.308Z,22.92
2017-08-25T08:34:52.129Z,23.04
2017-08-25T08:35:52.121Z,22.85
2017-08-25T08:38:55.962Z,22.79
2017-08-25T08:38:56.998Z,22.65
2017-08-25T08:38:57.602Z,22.55
2017-08-25T08:39:52.146Z,22.39
2017-08-25T08:40:52.390Z,22.40
2017-08-25T08:41:52.153Z,22.43
2017-08-25T08:42:52.154Z,22.61
2017-08-25T08:43:52.166Z,22.76
2017-08-25T08:44:52.158Z,22.94
2017-08-25T08:45:52.519Z,23.08
2017-08-25T08:46:52.163Z,22.97
2017-08-25T08:47:52.165Z,22.91
2017-08-25T08:48:52.168Z,22.87
2017-08-25T08:49:52.185Z,22.70
2017-08-25T08:50:52.172Z,22.58
2017-08-25T08:51:52.292Z,22.48
2017-08-25T08:52:52.180Z,22.50
2017-08-25T08:53:52.184Z,22.50
2017-08-25T08:54:52.199Z,22.51
2017-08-25T08:55:52.190Z,22.60
2017-08-25T08:56:52.208Z,22.59
2017-08-25T08:57:52.197Z,22.58
2017-08-25T08:58:52.199Z,22.66
2017-08-25T08:59:52.202Z,22.77
2017-08-25T09:00:52.209Z,22.87
2017-08-25T09:01:52.224Z,22.97
2017-08-25T09:02:52.211Z,23.07
2017-08-25T09:03:52.215Z,23.23
2017-08-25T09:04:52.215Z,23.38
2017-08-25T09:05:56.825Z,23.55
2017-08-25T09:06:52.221Z,23.69
2017-08-25T09:07:52.225Z,23.91
2017-08-25T09:08:52.225Z,23.91
2017-08-25T09:09:52.389Z,24.09
2017-08-25T09:10:52.253Z,23.89
2017-08-25T09:11:52.313Z,23.93
2017-08-25T09:12:52.237Z,24.16
2017-08-25T09:13:52.242Z,24.39
2017-08-25T09:14:52.246Z,24.66
2017-08-25T09:15:52.259Z,24.79
2017-08-25T09:16:52.248Z,25.05
2017-08-25T09:17:52.250Z,25.32
2017-08-25T09:18:52.253Z,25.35
2017-08-25T09:19:52.257Z,25.35
2017-08-25T09:20:52.267Z,25.62
2017-08-25T09:21:52.263Z,25.89
2017-08-25T09:22:52.276Z,25.81
2017-08-25T09:23:52.273Z,25.78
2017-08-25T09:24:52.272Z,25.71
2017-08-25T09:25:52.277Z,25.73
2017-08-25T09:26:52.289Z,25.66
2017-08-25T09:27:52.288Z,25.75
2017-08-25T09:28:52.285Z,25.85
2017-08-25T09:29:52.293Z,25.95
2017-08-25T09:30:52.521Z,26.09
2017-08-25T09:31:52.294Z,26.38
2017-08-25T09:32:52.297Z,26.47
2017-08-25T09:33:52.300Z,26.20
2017-08-25T09:34:52.305Z,25.87
2017-08-25T09:35:52.305Z,25.77
2017-08-25T09:36:52.310Z,25.81
2017-08-25T09:37:52.317Z,26.06
2017-08-25T09:38:52.326Z,25.98
2017-08-25T09:39:52.315Z,25.90
2017-08-25T09:40:52.443Z,25.90
2017-08-25T09:41:52.323Z,25.95
2017-08-25T09:42:52.327Z,26.31
2017-08-25T09:43:52.325Z,26.64
2017-08-25T09:44:52.334Z,26.80
2017-08-25T09:45:52.340Z,26.82
2017-08-25T09:46:52.344Z,27.07
2017-08-25T09:47:52.341Z,26.92
2017-08-25T09:48:52.349Z,27.14
2017-08-25T09:49:52.350Z,27.39
2017-08-25T09:50:52.355Z,27.15
2017-08-25T09:51:52.352Z,27.04
2017-08-25T09:52:52.352Z,27.05
2017-08-25T09:53:52.357Z,26.96
2017-08-25T09:54:52.363Z,27.12
2017-08-25T09:55:52.370Z,27.25
2017-08-25T09:56:52.380Z,27.43
2017-08-25T09:57:52.370Z,27.72
2017-08-25T09:58:52.371Z,27.79
2017-08-25T09:59:52.376Z,27.87
2017-08-25T10:00:52.384Z,27.87
2017-08-25T10:01:52.382Z,27.59
2017-08-25T10:02:52.387Z,27.44
2017-08-25T10:03:52.389Z,27.53
2017-08-25T10:04:52.396Z,27.73
2017-08-25T10:05:52.392Z,27.69
2017-08-25T10:06:52.419Z,27.67
2017-08-25T10:07:52.398Z,28.04
2017-08-25T10:08:52.401Z,28.33
2017-08-25T10:09:52.403Z,28.70
2017-08-25T10:10:52.405Z,29.02
2017-08-25T10:11:52.413Z,29.33
2017-08-25T10:12:52.413Z,29.43
2017-08-25T10:13:52.414Z,29.46
2017-08-25T10:14:52.415Z,29.05
2017-08-25T10:15:52.425Z,28.97
2017-08-25T10:16:52.424Z,29.02
2017-08-25T10:17:52.434Z,28.76
2017-08-25T10:18:52.428Z,28.60
2017-08-25T10:19:52.432Z,28.55
2017-08-25T10:20:52.434Z,28.34
2017-08-25T10:21:52.441Z,28.40
2017-08-25T10:22:52.442Z,28.52
2017-08-25T10:23:52.446Z,28.20
2017-08-25T10:24:52.453Z,28.25
2017-08-25T10:25:52.448Z,27.99
2017-08-25T10:26:52.452Z,27.79
2017-08-25T10:27:52.459Z,27.81
2017-08-25T10:28:52.457Z,27.95
2017-08-25T10:29:52.460Z,28.29
2017-08-25T10:30:52.485Z,28.37
2017-08-25T10:31:52.504Z,28.69
2017-08-25T10:32:52.470Z,28.67
2017-08-25T10:33:52.474Z,28.91
2017-08-25T10:34:52.493Z,28.99
2017-08-25T10:35:52.481Z,29.19
2017-08-25T10:36:52.483Z,29.16
2017-08-25T10:37:52.483Z,29.09
2017-08-25T10:38:52.489Z,29.29
2017-08-25T10:39:52.494Z,29.27
2017-08-25T10:40:52.494Z,29.21
2017-08-25T10:41:52.496Z,29.22
2017-08-25T10:42:52.497Z,29.38
2017-08-25T10:43:52.502Z,29.44
2017-08-25T10:44:52.510Z,29.59
2017-08-25T10:45:52.506Z,29.86
2017-08-25T10:46:52.510Z,30.13
2017-08-25T10:47:52.509Z,29.89
2017-08-25T10:48:52.517Z,30.03
2017-08-25T10:49:52.518Z,29.77
2017-08-25T10:50:52.525Z,29.76
2017-08-25T10:51:52.523Z,29.56
2017-08-25T10:52:52.524Z,29.28
2017-08-25T10:53:52.639Z,28.73
2017-08-25T10:54:52.594Z,28.34
2017-08-25T10:55:54.716Z,28.25
2017-08-25T10:56:52.559Z,28.28
2017-08-25T10:57:52.547Z,28.34
2017-08-25T10:58:52.557Z,28.39
2017-08-25T10:59:52.545Z,28.50
2017-08-25T11:00:52.553Z,28.43
2017-08-25T11:01:52.572Z,28.66
2017-08-25T11:02:52.553Z,28.74
2017-08-25T11:03:52.564Z,28.87
2017-08-25T11:04:52.562Z,28.94
2017-08-25T11:05:52.561Z,28.96
2017-08-25T11:06:52.568Z,28.95
2017-08-25T11:07:52.571Z,28.81
2017-08-25T11:08:52.577Z,28.65
2017-08-25T11:10:09.791Z,28.17
2017-08-25T11:10:57.685Z,27.93
2017-08-25T11:11:52.618Z,28.17
2017-08-25T11:12:52.781Z,28.37
2017-08-25T11:13:52.588Z,28.41
2017-08-25T11:14:52.622Z,28.39
2017-08-25T11:15:52.750Z,28.30
2017-08-25T11:16:52.602Z,28.19
2017-08-25T11:17:52.603Z,28.21
2017-08-25T11:18:52.602Z,28.22
2017-08-25T11:19:52.616Z,27.86
2017-08-25T11:20:52.613Z,27.82
2017-08-25T11:21:52.611Z,27.79
2017-08-25T11:22:52.616Z,27.71
2017-08-25T11:23:52.630Z,27.66
2017-08-25T11:24:52.635Z,27.72
2017-08-25T11:25:52.717Z,27.72
2017-08-25T11:26:52.695Z,27.78
2017-08-25T11:27:52.625Z,27.98
2017-08-25T11:28:52.628Z,28.13
2017-08-25T11:29:52.634Z,28.21
2017-08-25T11:30:52.634Z,28.35
2017-08-25T11:31:52.636Z,28.51
2017-08-25T11:32:52.663Z,28.54
2017-08-25T11:33:52.642Z,28.72
2017-08-25T11:34:52.655Z,28.89
2017-08-25T11:35:52.647Z,28.98
2017-08-25T11:36:52.655Z,29.03
2017-08-25T11:37:52.654Z,28.99
2017-08-25T11:38:52.656Z,28.87
2017-08-25T11:39:52.660Z,28.68
2017-08-25T11:40:52.666Z,28.74
2017-08-25T11:41:52.669Z,28.89
2017-08-25T11:42:52.670Z,28.92
2017-08-25T11:43:52.670Z,28.78
2017-08-25T11:44:52.677Z,28.23
2017-08-25T11:45:52.683Z,28.26
2017-08-25T11:46:52.684Z,28.43
2017-08-25T11:47:52.694Z,28.50
2017-08-25T11:48:52.694Z,28.67
2017-08-25T11:49:52.703Z,28.59
2017-08-25T11:50:52.692Z,28.66
2017-08-25T11:51:52.716Z,28.57
2017-08-25T11:52:52.703Z,28.36
2017-08-25T11:53:52.725Z,28.03
2017-08-25T11:54:52.701Z,27.68
2017-08-25T11:55:52.704Z,27.42
2017-08-25T11:56:52.709Z,27.21
2017-08-25T11:57:52.713Z,27.37
2017-08-25T11:58:52.716Z,27.20
2017-08-25T11:59:52.718Z,26.91
2017-08-25T12:00:52.860Z,27.09
2017-08-25T12:01:52.728Z,27.41
2017-08-25T12:02:52.725Z,27.77
2017-08-25T12:03:52.739Z,28.05
2017-08-25T12:04:52.764Z,28.09
2017-08-25T12:05:52.738Z,27.79
2017-08-25T12:06:52.740Z,27.47
2017-08-25T12:07:52.742Z,27.40
2017-08-25T12:08:52.862Z,27.30
2017-08-25T12:09:52.818Z,27.29
2017-08-25T12:10:52.762Z,27.30
2017-08-25T12:11:52.756Z,27.20
2017-08-25T12:12:52.772Z,27.24
2017-08-25T12:13:52.768Z,27.33
2017-08-25T12:14:52.777Z,27.36
2017-08-25T12:15:52.766Z,27.46
2017-08-25T12:16:52.766Z,27.35
2017-08-25T12:17:52.769Z,27.32
2017-08-25T12:18:52.773Z,27.14
2017-08-25T12:19:52.842Z,27.10
2017-08-25T12:20:52.793Z,26.89
2017-08-25T12:21:52.790Z,26.87
2017-08-25T12:22:52.785Z,26.83
2017-08-25T12:23:52.787Z,26.70
2017-08-25T12:24:52.790Z,26.50
2017-08-25T12:25:52.791Z,26.46
2017-08-25T12:26:52.794Z,26.44
2017-08-25T12:27:52.796Z,26.48
2017-08-25T12:28:52.805Z,26.40
2017-08-25T12:29:52.809Z,26.42
2017-08-25T12:30:52.814Z,26.48
2017-08-25T12:31:53.043Z,26.43
2017-08-25T12:32:52.813Z,26.51
2017-08-25T12:33:52.831Z,26.55
2017-08-25T12:34:52.834Z,26.52
2017-08-25T12:35:52.905Z,26.55
2017-08-25T12:36:52.824Z,26.51
2017-08-25T12:37:52.828Z,26.42
2017-08-25T12:38:52.914Z,26.41
2017-08-25T12:39:52.834Z,26.38
2017-08-25T12:40:52.840Z,26.34
2017-08-25T12:41:52.840Z,26.26
2017-08-25T12:42:52.841Z,26.20
2017-08-25T12:43:52.885Z,26.21
2017-08-25T12:44:52.893Z,26.12
2017-08-25T12:46:19.329Z,26.21
2017-08-25T12:46:20.774Z,26.21
2017-08-25T12:46:54.565Z,26.19
2017-08-25T12:47:52.854Z,26.23
2017-08-25T12:48:52.860Z,26.19
2017-08-25T12:49:52.863Z,26.07
2017-08-25T12:50:52.862Z,26.06